In Rescue
 
Open Full Screen Window  High Contrast Mode
Wind Gusting 00 knots
06
February 25, 2021 4:17 PM EST
Weather Information
Wind Direction
  260 °
Wind Speed
  06 kt (7 mph)
Wind Gust
  00 kt (0 mph)
Altimeter
30.27 in
Visibility
10 SM
Temperature
05° C
41° F
Dewpoint
-02° C
28° F
Humidity
61%
Sky Condition
Clear
VFR

METAR KDUH 252117Z AUTO 26006KT 10SM CLR 05/M02 A3027 RMK AO2 T00451020

FAA Disclaimer: The data displayed is for advisory purposes only and is not to be used for flight planning or operations.